Flight Track Log - Related Links

Times and Time Zones

All times are in EST time to prevent confusion due to time zone crossing. See the EJA922 flight status page for this flight to view local times or setup timezone preferences in your user account.

Time Position Orientation Groundspeed Altitude Reporting Facility
EST Latitude Longitude Course Direction KTS MPH feet Rate Location/Type
Fri 04:24:09 PM 27.2228 -80.1781 318° Northwest 266 306 3,000  Level Miami Center
Fri 04:25:09 PM 27.2356 -80.2581 280° West 274 315 3,600 1,000 Climbing Miami Center
Fri 04:26:09 PM 27.2483 -80.3353 281° West 280 322 5,000 1,200 Climbing Miami Center
Fri 04:27:09 PM 27.2547 -80.4128 275° West 269 310 6,000 1,850 Climbing Miami Center
Fri 04:28:09 PM 27.2522 -80.5083 268° West 269 310 8,700 2,050 Climbing Miami Center
Fri 04:29:09 PM 27.2433 -80.6133 265° West 315 362 10,100 700 Climbing Miami Center
Fri 04:30:09 PM 27.1925 -80.7189 242° Southwest 353 406 10,100  Level Miami Center
Fri 04:31:09 PM 27.1419 -80.8153 240° Southwest 388 447 10,100  Level Miami Center
Fri 04:32:09 PM 27.0847 -80.9206 239° Southwest 393 452 10,100 -50 Level Miami Center
Fri 04:33:09 PM 27.0231 -81.0350 239° Southwest 398 458 10,000 150 Descending Miami Center
Fri 04:34:09 PM 26.9636 -81.1425 238° Southwest 404 465 10,400 500 Climbing Miami Center
Fri 04:35:09 PM 26.9061 -81.2475 238° Southwest 399 459 11,000 700 Climbing Miami Center
Fri 04:36:09 PM 26.8594 -81.3433 241° Southwest 375 432 11,800 100 Climbing Miami Center
Fri 04:37:09 PM 26.8025 -81.4225 231° Southwest 346 398 11,200 -750 Descending Miami Center
Fri 04:38:09 PM 26.7136 -81.4611 201° Southwest 328 377 10,300 -1,200 Descending Miami Center
Fri 04:39:09 PM 26.6319 -81.4694 185° South 307 353 8,800 -1,150 Descending Miami Center
Fri 04:40:09 PM 26.5569 -81.4642 176° South 295 339 8,000 -1,100 Descending Miami Center
Fri 04:41:09 PM 26.4944 -81.4594 176° South 256 295 6,600 -1,500 Descending Miami Center
Fri 04:42:09 PM 26.4358 -81.4686 188° South 227 261 5,000 -800 Descending Miami Center
Fri 04:43:09 PM 26.4025 -81.5278 238° Southwest 200 230 5,000  Level Miami Center
Fri 04:44:09 PM 26.3733 -81.5892 242° Southwest 222 255 5,000  Level Miami Center
Fri 04:46:00 PM 26.2640 -81.6816 236° Southwest  Level Estimated
Fri 04:53:00 PM 26.1500 -81.7667 246° West  Level FlightAware Approximate
Fri 04:54:00 PM 26.1524 -81.7756 246° West  Level Estimated
Fri 04:55:00 PM 26.1524 -81.7756 246° West  Level Estimated
Fri 04:56:00 PM 26.1524 -81.7756 246° West  Level Estimated
Fri 04:57:00 PM 26.1524 -81.7756 246° West  Level Estimated
Fri 04:58:00 PM 26.1524 -81.7756 246° West  Level Estimated
Fri 04:59:00 PM 26.1524 -81.7756 246° West  Level Estimated

Login

Don't have an account? Register now (free) for customized features, flight alerts, and more!